Time;durP1;ratioP1;P1;durP2;ratioP2;P2;SDS_P1;SDS_P2;PMS_P1;PMS_P2;Temp;Humidity;BMP_temperature;BMP_pressure;BME280_temperature;BME280_humidity;BME280_pressure;Samples;Min_cycle;Max_cycle;Signal;HPM_P1;HPM_P2
2023/12/12 00:02:12;;;;;;;16.42;10.57;;;;;;;;;;5073323;28;20080;-47
2023/12/12 00:04:37;;;;;;;18.63;11.23;;;;;;;;;;5074253;28;20032;-45
2023/12/12 00:07:03;;;;;;;24.15;15.80;;;;;;;;;;5075827;28;20028;-47
2023/12/12 00:09:28;;;;;;;21.08;14.50;;;;;;;;;;5076383;28;20047;-45
2023/12/12 00:11:54;;;;;;;16.48;10.07;;;;;;;;;;5076662;28;20025;-48
2023/12/12 00:14:20;;;;;;;16.60;12.43;;;;;;;;;;5075595;28;20040;-46
2023/12/12 00:16:45;;;;;;;17.73;12.10;;;;;;;;;;5076689;28;20123;-44
2023/12/12 00:19:10;;;;;;;13.73;10.13;;;;;;;;;;5075322;28;20044;-48
2023/12/12 00:21:36;;;;;;;17.98;11.48;;;;;;;;;;5069054;28;20413;-48
2023/12/12 00:24:02;;;;;;;14.00;10.77;;;;;;;;;;5075035;28;20530;-48
2023/12/12 00:26:27;;;;;;;20.27;13.82;;;;;;;;;;5080525;28;20593;-45
2023/12/12 00:28:53;;;;;;;16.80;11.48;;;;;;;;;;5076287;28;20036;-49
2023/12/12 00:31:18;;;;;;;18.83;11.57;;;;;;;;;;5074389;28;20796;-48
2023/12/12 00:33:43;;;;;;;14.15;10.38;;;;;;;;;;5074677;28;20040;-51
2023/12/12 00:36:09;;;;;;;13.15;10.35;;;;;;;;;;5073722;28;20108;-45
2023/12/12 00:38:34;;;;;;;16.48;11.68;;;;;;;;;;5072561;28;20039;-46
2023/12/12 00:41:00;;;;;;;14.98;11.55;;;;;;;;;;5075971;28;20093;-46
2023/12/12 00:43:25;;;;;;;13.07;9.57;;;;;;;;;;5073757;28;20508;-48
2023/12/12 00:45:51;;;;;;;16.02;10.35;;;;;;;;;;5074230;28;20074;-46
2023/12/12 00:48:20;;;;;;;14.52;12.65;;;;;;;;;;5075918;28;20128;-49
2023/12/12 00:50:45;;;;;;;15.68;11.48;;;;;;;;;;5074908;28;20798;-47
2023/12/12 00:53:11;;;;;;;12.85;11.23;;;;;;;;;;5072664;28;20047;-47
2023/12/12 00:55:36;;;;;;;14.35;11.10;;;;;;;;;;5073297;28;20473;-44
2023/12/12 00:58:02;;;;;;;13.25;10.45;;;;;;;;;;5076590;28;20089;-48
2023/12/12 01:00:27;;;;;;;13.23;10.38;;;;;;;;;;5076647;28;20024;-49
2023/12/12 01:02:52;;;;;;;13.90;10.43;;;;;;;;;;5084386;28;20030;-47
2023/12/12 01:05:18;;;;;;;15.63;10.00;;;;;;;;;;5072825;28;20039;-47
2023/12/12 01:07:43;;;;;;;15.60;10.90;;;;;;;;;;5074973;28;20039;-46
2023/12/12 01:10:09;;;;;;;20.98;11.95;;;;;;;;;;5074415;28;20028;-50
2023/12/12 01:12:34;;;;;;;13.25;10.52;;;;;;;;;;5074936;28;20024;-46
2023/12/12 01:15:00;;;;;;;14.70;11.45;;;;;;;;;;5072899;28;20060;-49
2023/12/12 01:17:29;;;;;;;19.35;12.05;;;;;;;;;;5074991;28;20111;-46
2023/12/12 01:19:54;;;;;;;;;;;;;;;;;;5072735;28;20029;-46
2023/12/12 01:22:20;;;;;;;18.52;12.43;;;;;;;;;;5074412;28;19918;-45
2023/12/12 01:24:46;;;;;;;13.90;11.05;;;;;;;;;;5072683;28;20487;-48
2023/12/12 01:27:11;;;;;;;16.65;10.18;;;;;;;;;;5080237;28;20056;-45
2023/12/12 01:29:38;;;;;;;15.57;10.75;;;;;;;;;;5075082;28;20107;-48
2023/12/12 01:32:03;;;;;;;16.38;11.43;;;;;;;;;;5075868;28;20028;-47
2023/12/12 01:34:29;;;;;;;15.90;12.15;;;;;;;;;;5071929;28;20042;-45
2023/12/12 01:36:54;;;;;;;15.32;11.77;;;;;;;;;;5075014;28;20084;-47
2023/12/12 01:39:20;;;;;;;13.18;10.60;;;;;;;;;;5074416;28;20083;-44
2023/12/12 01:41:46;;;;;;;16.23;11.27;;;;;;;;;;5075003;28;20028;-46
2023/12/12 01:44:11;;;;;;;13.63;10.80;;;;;;;;;;5055133;28;20548;-46
2023/12/12 01:46:37;;;;;;;17.77;11.73;;;;;;;;;;5075567;28;20394;-45
2023/12/12 01:49:03;;;;;;;18.52;11.02;;;;;;;;;;5074268;28;20037;-48
2023/12/12 01:51:29;;;;;;;19.65;11.80;;;;;;;;;;5079485;28;20041;-49
2023/12/12 01:53:55;;;;;;;11.85;10.15;;;;;;;;;;5078123;28;20067;-45
2023/12/12 01:56:21;;;;;;;11.93;9.80;;;;;;;;;;5077575;28;20021;-46
2023/12/12 01:58:50;;;;;;;11.07;8.13;;;;;;;;;;5077646;28;20044;-50
2023/12/12 02:01:16;;;;;;;9.20;8.13;;;;;;;;;;5078667;28;20093;-46
2023/12/12 02:03:42;;;;;;;10.45;8.82;;;;;;;;;;5078971;28;20073;-46
2023/12/12 02:06:09;;;;;;;14.82;9.23;;;;;;;;;;5078065;28;20036;-46
2023/12/12 02:08:34;;;;;;;11.57;10.25;;;;;;;;;;5075969;28;20033;-45
2023/12/12 02:11:00;;;;;;;13.93;12.60;;;;;;;;;;5078066;28;20092;-46
2023/12/12 02:13:26;;;;;;;12.63;9.60;;;;;;;;;;5076831;28;20044;-45
2023/12/12 02:15:51;;;;;;;11.45;9.65;;;;;;;;;;5077351;28;20040;-44
2023/12/12 02:18:17;;;;;;;14.15;10.82;;;;;;;;;;5076513;28;20043;-45
2023/12/12 02:20:43;;;;;;;11.55;9.45;;;;;;;;;;5079992;28;20101;-48
2023/12/12 02:23:08;;;;;;;11.23;8.77;;;;;;;;;;5089159;28;20051;-51
2023/12/12 02:25:34;;;;;;;12.63;9.02;;;;;;;;;;5084205;28;20033;-47
2023/12/12 02:28:01;;;;;;;13.25;8.95;;;;;;;;;;5077135;28;20107;-47
2023/12/12 02:30:26;;;;;;;14.02;10.43;;;;;;;;;;5078026;28;20036;-47
2023/12/12 02:32:51;;;;;;;17.08;9.88;;;;;;;;;;5081066;28;20028;-48
2023/12/12 02:35:17;;;;;;;12.25;10.38;;;;;;;;;;5083402;28;20474;-49
2023/12/12 02:37:42;;;;;;;11.35;8.82;;;;;;;;;;5076617;28;20071;-47
2023/12/12 02:40:08;;;;;;;14.38;10.35;;;;;;;;;;5077712;28;20020;-50
2023/12/12 02:42:34;;;;;;;13.93;9.75;;;;;;;;;;5077890;28;20055;-46
2023/12/12 02:44:59;;;;;;;14.60;11.43;;;;;;;;;;5077320;28;20033;-49
2023/12/12 02:47:25;;;;;;;15.10;10.68;;;;;;;;;;5075621;28;20024;-49
2023/12/12 02:49:50;;;;;;;15.07;11.45;;;;;;;;;;5074164;28;20044;-49
2023/12/12 02:52:16;;;;;;;12.00;9.98;;;;;;;;;;5077034;28;20056;-47
2023/12/12 02:54:41;;;;;;;11.07;8.63;;;;;;;;;;5077473;28;20562;-47
2023/12/12 02:57:07;;;;;;;10.18;9.20;;;;;;;;;;5076873;28;20127;-44
2023/12/12 02:59:33;;;;;;;12.93;8.63;;;;;;;;;;5077983;28;20037;-47
2023/12/12 03:01:58;;;;;;;11.05;9.73;;;;;;;;;;5077825;28;20047;-48
2023/12/12 03:04:24;;;;;;;8.75;7.78;;;;;;;;;;5075762;28;20047;-52
2023/12/12 03:06:49;;;;;;;8.70;7.90;;;;;;;;;;5075096;28;20020;-46
2023/12/12 03:09:15;;;;;;;10.25;8.00;;;;;;;;;;5076315;28;20044;-46
2023/12/12 03:11:40;;;;;;;9.73;8.15;;;;;;;;;;5077405;28;20059;-49
2023/12/12 03:14:05;;;;;;;9.85;7.32;;;;;;;;;;5075905;28;20044;-47
2023/12/12 03:16:31;;;;;;;8.27;6.78;;;;;;;;;;5076459;28;20453;-47
2023/12/12 03:18:56;;;;;;;8.73;7.60;;;;;;;;;;5077455;28;20482;-45
2023/12/12 03:21:21;;;;;;;8.77;7.97;;;;;;;;;;5076206;28;20016;-48
2023/12/12 03:23:47;;;;;;;7.90;7.10;;;;;;;;;;5075044;28;20028;-46
2023/12/12 03:26:12;;;;;;;8.48;7.05;;;;;;;;;;5077421;28;20086;-44
2023/12/12 03:28:38;;;;;;;7.80;7.10;;;;;;;;;;5077265;28;20192;-46
2023/12/12 03:31:04;;;;;;;8.60;7.70;;;;;;;;;;5083930;28;20034;-47
2023/12/12 03:33:30;;;;;;;8.50;7.70;;;;;;;;;;5076376;28;20033;-51
2023/12/12 03:35:55;;;;;;;9.88;8.07;;;;;;;;;;5075356;28;20032;-45
2023/12/12 03:38:21;;;;;;;7.72;6.93;;;;;;;;;;5076389;28;20071;-47
2023/12/12 03:40:46;;;;;;;7.57;6.55;;;;;;;;;;5076493;28;20029;-45
2023/12/12 03:43:11;;;;;;;7.43;5.70;;;;;;;;;;5092628;28;20029;-45
2023/12/12 03:45:37;;;;;;;7.30;6.10;;;;;;;;;;5090650;28;20040;-45
2023/12/12 03:48:02;;;;;;;9.38;7.68;;;;;;;;;;5077015;28;20032;-45
2023/12/12 03:50:28;;;;;;;9.65;8.25;;;;;;;;;;5075226;28;20101;-45
2023/12/12 03:52:53;;;;;;;8.75;7.60;;;;;;;;;;5075796;28;20111;-47
2023/12/12 03:55:19;;;;;;;10.63;7.50;;;;;;;;;;5075367;28;20025;-48
2023/12/12 03:57:44;;;;;;;9.43;7.75;;;;;;;;;;5077133;28;20021;-46
2023/12/12 04:00:10;;;;;;;8.73;7.82;;;;;;;;;;5075471;28;20548;-46
2023/12/12 04:02:36;;;;;;;9.48;8.38;;;;;;;;;;5075643;28;20107;-45
2023/12/12 04:05:03;;;;;;;8.98;6.95;;;;;;;;;;5074127;28;20051;-45
2023/12/12 04:07:29;;;;;;;8.30;7.10;;;;;;;;;;5077542;28;20025;-46
2023/12/12 04:09:54;;;;;;;10.52;8.25;;;;;;;;;;5074030;28;20041;-46
2023/12/12 04:12:19;;;;;;;8.98;7.88;;;;;;;;;;5075314;28;20036;-49
2023/12/12 04:14:45;;;;;;;10.25;7.68;;;;;;;;;;5082234;28;20173;-45
2023/12/12 04:17:12;;;;;;;10.63;9.13;;;;;;;;;;5075376;28;20037;-46
2023/12/12 04:19:37;;;;;;;12.88;10.30;;;;;;;;;;5066131;28;20098;-46
2023/12/12 04:22:03;;;;;;;9.77;8.80;;;;;;;;;;5076661;28;20794;-47
2023/12/12 04:24:28;;;;;;;12.02;9.85;;;;;;;;;;5074980;28;20141;-48
2023/12/12 04:26:54;;;;;;;13.15;11.40;;;;;;;;;;5073929;28;20017;-47
2023/12/12 04:29:19;;;;;;;11.45;8.50;;;;;;;;;;5073772;28;20045;-49
2023/12/12 04:31:49;;;;;;;11.60;8.13;;;;;;;;;;5075041;28;20032;-46
2023/12/12 04:34:15;;;;;;;10.48;8.13;;;;;;;;;;5075769;28;20120;-45
2023/12/12 04:36:41;;;;;;;9.13;6.75;;;;;;;;;;5074872;28;20052;-50
2023/12/12 04:39:11;;;;;;;10.35;8.30;;;;;;;;;;5075394;28;20097;-49
2023/12/12 04:41:40;;;;;;;9.25;8.05;;;;;;;;;;5076599;28;20049;-46
2023/12/12 04:44:07;;;;;;;8.38;7.57;;;;;;;;;;5074640;28;20064;-47
2023/12/12 04:46:33;;;;;;;9.07;7.60;;;;;;;;;;5073156;28;20056;-48
2023/12/12 04:49:00;;;;;;;12.25;9.50;;;;;;;;;;5073104;28;20090;-47
2023/12/12 04:51:26;;;;;;;10.63;7.50;;;;;;;;;;5076262;28;20131;-44
2023/12/12 04:53:51;;;;;;;8.40;6.88;;;;;;;;;;5072830;28;20082;-50
2023/12/12 04:56:17;;;;;;;8.60;7.78;;;;;;;;;;5073701;28;20032;-47
2023/12/12 04:58:42;;;;;;;8.52;7.40;;;;;;;;;;5075308;28;20034;-47
2023/12/12 05:01:08;;;;;;;7.97;7.18;;;;;;;;;;5075168;28;20077;-48
2023/12/12 05:03:33;;;;;;;10.05;8.02;;;;;;;;;;5074395;28;20040;-48
2023/12/12 05:05:59;;;;;;;8.73;6.90;;;;;;;;;;5082140;28;20120;-50
2023/12/12 05:08:24;;;;;;;7.63;6.05;;;;;;;;;;5075567;28;20420;-46
2023/12/12 05:10:49;;;;;;;8.57;7.13;;;;;;;;;;5072331;28;20031;-44
2023/12/12 05:13:15;;;;;;;9.13;7.18;;;;;;;;;;5075563;28;20125;-51
2023/12/12 05:15:40;;;;;;;10.20;7.72;;;;;;;;;;5078508;28;20029;-49
2023/12/12 05:18:07;;;;;;;10.43;7.13;;;;;;;;;;5073291;28;20036;-48
2023/12/12 05:20:33;;;;;;;8.90;8.00;;;;;;;;;;5072586;28;20535;-48
2023/12/12 05:22:58;;;;;;;8.13;7.43;;;;;;;;;;5074808;28;20044;-49
2023/12/12 05:25:24;;;;;;;9.88;7.43;;;;;;;;;;5074496;28;20021;-49
2023/12/12 05:27:49;;;;;;;10.15;6.55;;;;;;;;;;5070776;28;20088;-45
2023/12/12 05:30:15;;;;;;;8.27;7.50;;;;;;;;;;5075337;28;20033;-45
2023/12/12 05:32:41;;;;;;;9.25;7.55;;;;;;;;;;5075935;28;20071;-45
2023/12/12 05:35:09;;;;;;;9.00;6.18;;;;;;;;;;5075818;28;20020;-46
2023/12/12 05:37:36;;;;;;;8.73;6.38;;;;;;;;;;5087811;28;20096;-47
2023/12/12 05:40:02;;;;;;;8.50;6.93;;;;;;;;;;5074439;28;20510;-47
2023/12/12 05:42:28;;;;;;;8.07;5.60;;;;;;;;;;5059886;28;20019;-48
2023/12/12 05:44:53;;;;;;;9.02;8.13;;;;;;;;;;5089863;28;20119;-46
2023/12/12 05:47:19;;;;;;;7.43;6.55;;;;;;;;;;5074240;28;20028;-45
2023/12/12 05:49:44;;;;;;;7.93;6.15;;;;;;;;;;5088815;28;20095;-44
2023/12/12 05:52:10;;;;;;;7.43;6.65;;;;;;;;;;5072821;28;20131;-48
2023/12/12 05:54:36;;;;;;;8.07;6.50;;;;;;;;;;5068663;28;20036;-46
2023/12/12 05:57:01;;;;;;;7.07;6.38;;;;;;;;;;5073557;28;20032;-44
2023/12/12 05:59:27;;;;;;;7.50;6.60;;;;;;;;;;5071456;28;20181;-45
2023/12/12 06:01:52;;;;;;;9.05;6.13;;;;;;;;;;5071570;28;20025;-47
2023/12/12 06:04:17;;;;;;;8.00;7.05;;;;;;;;;;5072026;28;20128;-48
2023/12/12 06:06:44;;;;;;;7.45;6.75;;;;;;;;;;5069965;28;20029;-47
2023/12/12 06:09:11;;;;;;;9.40;7.20;;;;;;;;;;5072334;28;20037;-45
2023/12/12 06:11:37;;;;;;;7.78;6.97;;;;;;;;;;5074471;28;20032;-44
2023/12/12 06:14:03;;;;;;;6.55;5.95;;;;;;;;;;5090317;28;20614;-45
2023/12/12 06:16:31;;;;;;;7.75;6.25;;;;;;;;;;5074465;28;20071;-48
2023/12/12 06:18:57;;;;;;;6.97;6.28;;;;;;;;;;5072630;28;20383;-46
2023/12/12 06:21:22;;;;;;;8.45;6.25;;;;;;;;;;5072845;28;20090;-48
2023/12/12 06:23:48;;;;;;;8.25;6.43;;;;;;;;;;5073008;28;20127;-49
2023/12/12 06:26:15;;;;;;;7.28;5.93;;;;;;;;;;5067590;28;20473;-45
2023/12/12 06:28:40;;;;;;;7.50;5.72;;;;;;;;;;5070519;28;20036;-48
2023/12/12 06:31:07;;;;;;;7.75;7.03;;;;;;;;;;5072333;28;20024;-47
2023/12/12 06:33:33;;;;;;;8.13;5.70;;;;;;;;;;5073724;28;20032;-48
2023/12/12 06:35:58;;;;;;;6.65;6.00;;;;;;;;;;5070403;28;20050;-47
2023/12/12 06:38:24;;;;;;;7.47;5.22;;;;;;;;;;5069704;28;20037;-48
2023/12/12 06:40:49;;;;;;;5.97;5.38;;;;;;;;;;5075176;28;20538;-47
2023/12/12 06:43:16;;;;;;;8.02;7.15;;;;;;;;;;5077475;28;20040;-47
2023/12/12 06:45:41;;;;;;;8.93;6.05;;;;;;;;;;5079144;28;20031;-49
2023/12/12 06:48:07;;;;;;;6.97;5.22;;;;;;;;;;5084535;28;20041;-54
2023/12/12 06:50:32;;;;;;;7.35;6.10;;;;;;;;;;5070359;28;20108;-50
2023/12/12 06:52:57;;;;;;;7.60;5.13;;;;;;;;;;5072355;28;20049;-49
2023/12/12 06:55:23;;;;;;;6.32;5.70;;;;;;;;;;5070080;28;20584;-48
2023/12/12 06:57:48;;;;;;;10.35;6.07;;;;;;;;;;5076959;28;20020;-49
2023/12/12 07:00:14;;;;;;;7.13;6.25;;;;;;;;;;5074805;28;20142;-47
2023/12/12 07:02:40;;;;;;;7.82;5.43;;;;;;;;;;5075047;28;20025;-46
2023/12/12 07:05:05;;;;;;;7.25;5.47;;;;;;;;;;5076396;28;20024;-46
2023/12/12 07:07:32;;;;;;;6.55;5.35;;;;;;;;;;5075454;28;20748;-49
2023/12/12 07:09:58;;;;;;;11.50;6.00;;;;;;;;;;5072088;28;20128;-51
2023/12/12 07:12:24;;;;;;;13.45;8.35;;;;;;;;;;5076711;28;20070;-49
2023/12/12 07:14:51;;;;;;;6.82;6.13;;;;;;;;;;5076981;28;20025;-47
2023/12/12 07:17:16;;;;;;;7.53;4.90;;;;;;;;;;5066782;28;20360;-49
2023/12/12 07:19:41;;;;;;;7.53;5.75;;;;;;;;;;5072794;28;20043;-46
2023/12/12 07:22:07;;;;;;;6.75;6.13;;;;;;;;;;5071399;28;20028;-47
2023/12/12 07:24:33;;;;;;;8.10;5.45;;;;;;;;;;5077246;28;20056;-48
2023/12/12 07:26:58;;;;;;;7.53;5.38;;;;;;;;;;5077818;28;20020;-48
2023/12/12 07:29:23;;;;;;;7.35;6.20;;;;;;;;;;5077690;28;20040;-49
2023/12/12 07:31:50;;;;;;;6.80;6.18;;;;;;;;;;5072678;28;20081;-45
2023/12/12 07:34:15;;;;;;;9.48;8.57;;;;;;;;;;5070392;28;21181;-50
2023/12/12 07:36:41;;;;;;;6.97;6.20;;;;;;;;;;5077942;28;20052;-47
2023/12/12 07:39:07;;;;;;;8.65;6.70;;;;;;;;;;5075399;28;20044;-49
2023/12/12 07:41:32;;;;;;;8.98;6.72;;;;;;;;;;5091999;28;20024;-46
2023/12/12 07:43:58;;;;;;;6.15;5.38;;;;;;;;;;5075700;28;21245;-46
2023/12/12 07:46:23;;;;;;;8.07;6.00;;;;;;;;;;5074953;28;20029;-47
2023/12/12 07:48:49;;;;;;;7.40;5.88;;;;;;;;;;5073206;28;20180;-47
2023/12/12 07:51:15;;;;;;;7.63;5.20;;;;;;;;;;5075116;28;20036;-49
2023/12/12 07:53:40;;;;;;;8.20;6.28;;;;;;;;;;5074019;28;20107;-47
2023/12/12 07:56:06;;;;;;;6.32;4.90;;;;;;;;;;5077321;28;20146;-48
2023/12/12 07:58:32;;;;;;;7.50;6.40;;;;;;;;;;5074351;28;20055;-46
2023/12/12 08:00:57;;;;;;;6.38;5.88;;;;;;;;;;5073374;28;20386;-48
2023/12/12 08:03:22;;;;;;;6.93;5.03;;;;;;;;;;5079766;28;20036;-47
2023/12/12 08:05:48;;;;;;;8.07;7.10;;;;;;;;;;5058888;28;20032;-49
2023/12/12 08:08:14;;;;;;;6.15;4.28;;;;;;;;;;5080957;28;20081;-49
2023/12/12 08:10:39;;;;;;;6.53;5.47;;;;;;;;;;5075668;28;20020;-47
2023/12/12 08:13:05;;;;;;;6.10;5.05;;;;;;;;;;5078166;28;20151;-45
2023/12/12 08:15:30;;;;;;;5.40;4.70;;;;;;;;;;5086842;28;20032;-44
2023/12/12 08:17:56;;;;;;;7.85;4.80;;;;;;;;;;5075267;28;20437;-50
2023/12/12 08:20:21;;;;;;;9.20;5.28;;;;;;;;;;5076936;28;20082;-49
2023/12/12 08:22:47;;;;;;;6.55;4.05;;;;;;;;;;5075631;28;20059;-47
2023/12/12 08:25:12;;;;;;;7.57;4.30;;;;;;;;;;5088419;28;20056;-47
2023/12/12 08:27:38;;;;;;;5.53;4.00;;;;;;;;;;5077502;28;20107;-45
2023/12/12 08:30:05;;;;;;;5.20;4.65;;;;;;;;;;5075648;28;20033;-46
2023/12/12 08:32:31;;;;;;;12.48;7.32;;;;;;;;;;5071192;28;20033;-47
2023/12/12 08:34:56;;;;;;;8.32;7.20;;;;;;;;;;5076240;28;20032;-45
2023/12/12 08:37:22;;;;;;;10.23;6.18;;;;;;;;;;5074653;28;20115;-46
2023/12/12 08:39:47;;;;;;;7.03;4.18;;;;;;;;;;5073633;28;20036;-52
2023/12/12 08:42:14;;;;;;;6.85;5.10;;;;;;;;;;5074610;28;20029;-48
2023/12/12 08:44:42;;;;;;;8.88;5.85;;;;;;;;;;5073368;28;20044;-46
2023/12/12 08:47:08;;;;;;;10.70;6.55;;;;;;;;;;5076735;28;20039;-47
2023/12/12 08:49:37;;;;;;;8.90;5.57;;;;;;;;;;5090385;28;20486;-48
2023/12/12 08:52:04;;;;;;;7.63;5.18;;;;;;;;;;5073464;28;20072;-45
2023/12/12 08:54:30;;;;;;;7.65;4.60;;;;;;;;;;5075478;28;20064;-48
2023/12/12 08:56:55;;;;;;;7.88;4.72;;;;;;;;;;5072472;28;20567;-45
2023/12/12 08:59:23;;;;;;;7.70;4.90;;;;;;;;;;5073713;28;20060;-49
2023/12/12 09:01:49;;;;;;;6.18;4.05;;;;;;;;;;5074592;28;20028;-48
2023/12/12 09:04:16;;;;;;;4.70;4.25;;;;;;;;;;5077143;28;20039;-47
2023/12/12 09:06:45;;;;;;;7.22;4.28;;;;;;;;;;5075030;28;20076;-46
2023/12/12 09:09:11;;;;;;;5.30;3.85;;;;;;;;;;5075462;28;20036;-46
2023/12/12 09:11:37;;;;;;;5.05;4.55;;;;;;;;;;5074729;28;20016;-47
2023/12/12 09:14:03;;;;;;;5.47;3.72;;;;;;;;;;5072781;28;20035;-50
2023/12/12 09:16:28;;;;;;;7.55;4.90;;;;;;;;;;5073355;28;20481;-48
2023/12/12 09:18:55;;;;;;;9.10;4.30;;;;;;;;;;5070521;28;20101;-49
2023/12/12 09:21:21;;;;;;;4.85;3.75;;;;;;;;;;5067171;28;20053;-48
2023/12/12 09:23:47;;;;;;;5.78;3.17;;;;;;;;;;5070344;28;20125;-47
2023/12/12 09:26:13;;;;;;;5.45;3.83;;;;;;;;;;5078955;28;20071;-47
2023/12/12 09:28:42;;;;;;;7.35;3.95;;;;;;;;;;5067970;28;20039;-45
2023/12/12 09:31:09;;;;;;;5.75;4.35;;;;;;;;;;5082743;28;20382;-47
2023/12/12 09:33:35;;;;;;;8.68;3.83;;;;;;;;;;5074932;28;20051;-49
2023/12/12 09:36:00;;;;;;;5.13;3.30;;;;;;;;;;5073664;28;20028;-50
2023/12/12 09:38:26;;;;;;;7.72;4.85;;;;;;;;;;5073880;28;20047;-49
2023/12/12 09:40:51;;;;;;;8.50;3.22;;;;;;;;;;5072518;28;20420;-46
2023/12/12 09:43:19;;;;;;;5.95;3.20;;;;;;;;;;5074971;28;20051;-48
2023/12/12 09:45:47;;;;;;;5.35;3.00;;;;;;;;;;5079520;28;20020;-47
2023/12/12 09:48:16;;;;;;;12.93;9.10;;;;;;;;;;5072937;28;20044;-46
2023/12/12 09:50:45;;;;;;;14.43;10.55;;;;;;;;;;5075038;28;20016;-48
2023/12/12 09:53:12;;;;;;;12.32;11.02;;;;;;;;;;5073358;28;20045;-47
2023/12/12 09:55:39;;;;;;;12.90;8.90;;;;;;;;;;5077440;28;20103;-46
2023/12/12 09:58:05;;;;;;;13.52;9.90;;;;;;;;;;5075514;28;20517;-48
2023/12/12 10:00:30;;;;;;;16.23;11.93;;;;;;;;;;5073667;28;20028;-44
2023/12/12 10:02:58;;;;;;;14.35;12.85;;;;;;;;;;5072372;28;20036;-43
2023/12/12 10:05:26;;;;;;;19.05;13.57;;;;;;;;;;5075151;28;20477;-46
2023/12/12 10:07:53;;;;;;;17.15;11.27;;;;;;;;;;5073452;28;20056;-44
2023/12/12 10:10:19;;;;;;;15.55;13.82;;;;;;;;;;5075104;28;20044;-45
2023/12/12 10:12:47;;;;;;;16.33;14.55;;;;;;;;;;5074476;28;20044;-45
2023/12/12 10:15:26;;;;;;;20.02;16.52;;;;;;;;;;5076611;28;20048;-47
2023/12/12 10:17:59;;;;;;;17.65;15.80;;;;;;;;;;5074353;28;20032;-47
2023/12/12 10:20:31;;;;;;;20.38;16.02;;;;;;;;;;5077014;28;20052;-47
2023/12/12 10:23:01;;;;;;;17.98;15.52;;;;;;;;;;5078119;28;20043;-47
2023/12/12 10:25:28;;;;;;;17.40;15.60;;;;;;;;;;5082243;28;20084;-44
2023/12/12 10:27:55;;;;;;;17.08;15.32;;;;;;;;;;5080604;28;20107;-44
2023/12/12 10:30:21;;;;;;;19.50;15.45;;;;;;;;;;5075070;28;20029;-45
2023/12/12 10:32:51;;;;;;;12.30;7.43;;;;;;;;;;5076530;28;20056;-43
2023/12/12 10:35:21;;;;;;;6.50;4.35;;;;;;;;;;5078221;28;20121;-42
2023/12/12 10:37:47;;;;;;;9.02;3.47;;;;;;;;;;5077262;28;20028;-44
2023/12/12 10:40:21;;;;;;;7.20;4.55;;;;;;;;;;5080313;28;20036;-47
2023/12/12 10:42:47;;;;;;;5.70;4.07;;;;;;;;;;5075973;28;20378;-47
2023/12/12 10:45:15;;;;;;;5.38;3.25;;;;;;;;;;5084327;28;20505;-43
2023/12/12 10:47:49;;;;;;;4.57;3.55;;;;;;;;;;5069260;28;20111;-47
2023/12/12 10:50:16;;;;;;;5.13;3.65;;;;;;;;;;5075229;28;20072;-45
2023/12/12 10:52:44;;;;;;;4.18;3.45;;;;;;;;;;5077633;28;20058;-46
2023/12/12 10:55:11;;;;;;;5.30;3.78;;;;;;;;;;5077788;28;20553;-46
2023/12/12 10:57:38;;;;;;;4.13;3.30;;;;;;;;;;5071646;28;20059;-45
2023/12/12 11:00:11;;;;;;;5.75;2.88;;;;;;;;;;5073064;28;20036;-49
2023/12/12 11:02:38;;;;;;;6.80;3.72;;;;;;;;;;5078236;28;20043;-49
2023/12/12 11:05:05;;;;;;;6.40;3.50;;;;;;;;;;5058098;28;20059;-46
2023/12/12 11:07:32;;;;;;;3.58;2.72;;;;;;;;;;5071450;28;20078;-44
2023/12/12 11:09:58;;;;;;;6.80;4.10;;;;;;;;;;5072868;28;20036;-43
2023/12/12 11:12:25;;;;;;;6.18;5.40;;;;;;;;;;5065548;28;20086;-45
2023/12/12 11:14:51;;;;;;;13.77;12.07;;;;;;;;;;5071263;28;20165;-43
2023/12/12 11:17:18;;;;;;;26.83;15.73;;;;;;;;;;5074185;28;20116;-45
2023/12/12 11:19:44;;;;;;;23.33;15.57;;;;;;;;;;5075587;28;20036;-47
2023/12/12 11:22:09;;;;;;;26.17;23.20;;;;;;;;;;5067338;28;20380;-47
2023/12/12 11:25:16;;;;;;;24.55;21.65;;;;;;;;;;5073028;28;20028;-47
2023/12/12 11:27:46;;;;;;;25.30;22.48;;;;;;;;;;5037834;28;20048;-46
2023/12/12 11:30:11;;;;;;;26.38;23.65;;;;;;;;;;5082526;28;20047;-51
2023/12/12 11:32:36;;;;;;;24.88;22.20;;;;;;;;;;5075106;28;20032;-47
2023/12/12 11:35:09;;;;;;;25.50;20.02;;;;;;;;;;5074766;28;20127;-45
2023/12/12 11:37:39;;;;;;;24.42;21.83;;;;;;;;;;5077196;28;20024;-48
2023/12/12 11:40:06;;;;;;;24.50;20.58;;;;;;;;;;5075563;28;20410;-47
2023/12/12 11:42:31;;;;;;;23.15;20.02;;;;;;;;;;5078509;28;20020;-47
2023/12/12 11:44:58;;;;;;;25.13;21.40;;;;;;;;;;5075186;28;20044;-44
2023/12/12 11:47:26;;;;;;;23.95;20.60;;;;;;;;;;5075631;28;20031;-44
2023/12/12 11:50:15;;;;;;;27.73;21.95;;;;;;;;;;5075583;28;20060;-48
2023/12/12 11:52:40;;;;;;;23.85;21.17;;;;;;;;;;5074782;28;20044;-45
2023/12/12 11:55:07;;;;;;;23.58;21.08;;;;;;;;;;5074827;28;20021;-44
2023/12/12 11:57:33;;;;;;;28.85;23.17;;;;;;;;;;5073946;28;20028;-45
2023/12/12 12:00:00;;;;;;;25.98;21.48;;;;;;;;;;5074069;28;20067;-44
2023/12/12 12:02:29;;;;;;;25.90;23.10;;;;;;;;;;5074966;28;20620;-46
2023/12/12 12:04:55;;;;;;;29.23;22.40;;;;;;;;;;5075091;28;20505;-46
2023/12/12 12:07:20;;;;;;;27.50;23.00;;;;;;;;;;5076007;28;20024;-43
2023/12/12 12:09:49;;;;;;;30.27;21.92;;;;;;;;;;5084636;28;20033;-44
2023/12/12 12:12:16;;;;;;;29.88;22.60;;;;;;;;;;5068957;28;20028;-45
2023/12/12 12:14:41;;;;;;;30.45;24.63;;;;;;;;;;5059259;28;20036;-44
2023/12/12 12:17:07;;;;;;;25.50;21.60;;;;;;;;;;5069549;28;20021;-46
2023/12/12 12:19:37;;;;;;;23.73;21.23;;;;;;;;;;5091610;28;20072;-46
2023/12/12 12:22:10;;;;;;;28.02;21.58;;;;;;;;;;5074017;28;20028;-45
2023/12/12 12:24:44;;;;;;;22.80;18.98;;;;;;;;;;5076247;28;20040;-45
2023/12/12 12:27:09;;;;;;;27.80;21.17;;;;;;;;;;5075162;28;20028;-43
2023/12/12 12:29:35;;;;;;;24.33;21.23;;;;;;;;;;5075942;28;20036;-44
2023/12/12 12:32:16;;;;;;;21.90;19.30;;;;;;;;;;5080258;28;20036;-47
2023/12/12 12:34:42;;;;;;;24.17;19.75;;;;;;;;;;5091378;28;20035;-45
2023/12/12 12:37:07;;;;;;;24.98;20.77;;;;;;;;;;5077362;28;20356;-46
2023/12/12 12:39:42;;;;;;;24.15;18.85;;;;;;;;;;5076644;28;20047;-44
2023/12/12 12:42:09;;;;;;;24.67;19.83;;;;;;;;;;5079324;28;20039;-44
2023/12/12 12:44:36;;;;;;;22.88;18.25;;;;;;;;;;5074193;28;20043;-46
2023/12/12 12:47:01;;;;;;;20.55;18.02;;;;;;;;;;5075356;28;20080;-45
2023/12/12 12:49:26;;;;;;;22.75;18.75;;;;;;;;;;5073131;28;20461;-44
2023/12/12 12:51:52;;;;;;;23.77;20.05;;;;;;;;;;5076025;28;20048;-44
2023/12/12 12:54:17;;;;;;;23.42;19.20;;;;;;;;;;5086796;28;20143;-46
2023/12/12 12:56:46;;;;;;;26.33;21.77;;;;;;;;;;5074027;28;20047;-45
2023/12/12 12:59:14;;;;;;;25.52;22.08;;;;;;;;;;5073784;28;20090;-47
2023/12/12 13:01:40;;;;;;;26.30;23.45;;;;;;;;;;5071146;28;20032;-47
2023/12/12 13:04:07;;;;;;;28.40;22.58;;;;;;;;;;5070371;28;20073;-47
2023/12/12 13:06:32;;;;;;;28.85;22.15;;;;;;;;;;5084175;28;20657;-45
2023/12/12 13:08:58;;;;;;;24.30;20.70;;;;;;;;;;5074783;28;20167;-49
2023/12/12 13:11:23;;;;;;;24.80;20.98;;;;;;;;;;5074136;28;20360;-46
2023/12/12 13:13:50;;;;;;;24.33;21.77;;;;;;;;;;5075686;28;20051;-46
2023/12/12 13:16:18;;;;;;;26.60;21.65;;;;;;;;;;5073944;28;20090;-46
2023/12/12 13:18:44;;;;;;;26.00;22.13;;;;;;;;;;5069291;28;20032;-48
2023/12/12 13:21:09;;;;;;;26.05;20.23;;;;;;;;;;5078855;28;20040;-44
2023/12/12 13:23:35;;;;;;;22.48;19.90;;;;;;;;;;5072649;28;20063;-47
2023/12/12 13:26:00;;;;;;;22.45;18.42;;;;;;;;;;5075644;28;20024;-49
2023/12/12 13:28:25;;;;;;;21.60;18.45;;;;;;;;;;5073987;28;20071;-45
2023/12/12 13:30:51;;;;;;;22.63;16.58;;;;;;;;;;5074347;28;20021;-44
2023/12/12 13:33:16;;;;;;;21.27;16.38;;;;;;;;;;5073658;28;20033;-47
2023/12/12 13:35:42;;;;;;;18.63;15.27;;;;;;;;;;5075374;28;20036;-45
2023/12/12 13:38:07;;;;;;;18.95;14.10;;;;;;;;;;5071702;28;20041;-46
2023/12/12 13:40:32;;;;;;;19.60;14.93;;;;;;;;;;5072641;28;20115;-46
2023/12/12 13:42:58;;;;;;;21.30;14.48;;;;;;;;;;5074241;28;20127;-48
2023/12/12 13:45:23;;;;;;;18.33;14.10;;;;;;;;;;5075622;28;20081;-44
2023/12/12 13:47:49;;;;;;;17.15;12.75;;;;;;;;;;5079772;28;20055;-45
2023/12/12 13:50:14;;;;;;;18.10;12.93;;;;;;;;;;5081215;28;20029;-46
2023/12/12 13:52:40;;;;;;;17.08;13.05;;;;;;;;;;5092632;28;20059;-46
2023/12/12 13:55:06;;;;;;;19.67;12.73;;;;;;;;;;5094445;28;20040;-47
2023/12/12 13:57:31;;;;;;;18.48;15.50;;;;;;;;;;5076169;28;20024;-44
2023/12/12 13:59:57;;;;;;;18.48;13.70;;;;;;;;;;5080998;28;20826;-49
2023/12/12 14:02:22;;;;;;;22.52;13.95;;;;;;;;;;5073421;28;20040;-44
2023/12/12 14:04:47;;;;;;;17.52;15.05;;;;;;;;;;5079936;28;20040;-45
2023/12/12 14:07:13;;;;;;;18.05;13.68;;;;;;;;;;5075724;28;20023;-46
2023/12/12 14:09:38;;;;;;;20.08;13.50;;;;;;;;;;5078914;28;20398;-43
2023/12/12 14:12:04;;;;;;;17.13;14.18;;;;;;;;;;5076548;28;20107;-46
2023/12/12 14:14:29;;;;;;;16.88;12.65;;;;;;;;;;5091772;28;20040;-47
2023/12/12 14:16:55;;;;;;;19.17;14.95;;;;;;;;;;5076894;28;20047;-44
2023/12/12 14:19:20;;;;;;;22.20;15.40;;;;;;;;;;5081269;28;20038;-49
2023/12/12 14:21:47;;;;;;;21.33;16.42;;;;;;;;;;5077234;28;20038;-48
2023/12/12 14:24:12;;;;;;;24.38;17.50;;;;;;;;;;5077598;28;20036;-45
2023/12/12 14:26:38;;;;;;;30.83;18.58;;;;;;;;;;5076444;28;20027;-45